sensor_id;sensor_type;location;lat;lon;timestamp;temperature;humidity
54824;DHT22;40724;53.196;5.980;2024-01-27T10:34:35;10.50;99.90
54824;DHT22;40724;53.196;5.980;2024-01-27T10:39:27;9.40;99.90
54824;DHT22;40724;53.196;5.980;2024-01-27T10:44:20;9.60;99.90
54824;DHT22;40724;53.196;5.980;2024-01-27T10:46:47;9.90;99.90
54824;DHT22;40724;53.196;5.980;2024-01-27T10:49:15;10.00;99.90
54824;DHT22;40724;53.196;5.980;2024-01-27T10:51:46;10.20;99.90
54824;DHT22;40724;53.196;5.980;2024-01-27T10:54:25;10.30;99.90
54824;DHT22;40724;53.196;5.980;2024-01-27T10:56:54;10.50;99.90
54824;DHT22;40724;53.196;5.980;2024-01-27T10:59:21;10.60;99.90
54824;DHT22;40724;53.196;5.980;2024-01-27T11:01:49;10.70;99.90
54824;DHT22;40724;53.196;5.980;2024-01-27T11:04:20;10.90;99.90
54824;DHT22;40724;53.196;5.980;2024-01-27T11:06:49;11.10;99.90
54824;DHT22;40724;53.196;5.980;2024-01-27T11:09:18;11.20;99.90
54824;DHT22;40724;53.196;5.980;2024-01-27T11:11:45;11.40;99.90
54824;DHT22;40724;53.196;5.980;2024-01-27T11:14:11;11.60;99.90
54824;DHT22;40724;53.196;5.980;2024-01-27T11:16:37;11.80;99.90
54824;DHT22;40724;53.196;5.980;2024-01-27T11:19:12;12.00;99.90
54824;DHT22;40724;53.196;5.980;2024-01-27T11:21:38;12.20;99.90
54824;DHT22;40724;53.196;5.980;2024-01-27T11:24:17;12.50;99.90
54824;DHT22;40724;53.196;5.980;2024-01-27T11:26:44;13.10;99.90
54824;DHT22;40724;53.196;5.980;2024-01-27T11:29:10;13.90;99.90
54824;DHT22;40724;53.196;5.980;2024-01-27T11:31:45;14.60;99.90
54824;DHT22;40724;53.196;5.980;2024-01-27T11:44:18;15.10;99.90
54824;DHT22;40724;53.196;5.980;2024-01-27T11:46:45;16.20;99.90
54824;DHT22;40724;53.196;5.980;2024-01-27T11:49:17;16.30;99.90
54824;DHT22;40724;53.196;5.980;2024-01-27T11:54:09;16.50;99.90
54824;DHT22;40724;53.196;5.980;2024-01-27T11:56:35;17.10;99.90
54824;DHT22;40724;53.196;5.980;2024-01-27T12:01:27;17.50;99.90
54824;DHT22;40724;53.196;5.980;2024-01-27T12:03:53;18.30;99.90
54824;DHT22;40724;53.196;5.980;2024-01-27T12:06:19;18.60;99.90
54824;DHT22;40724;53.196;5.980;2024-01-27T12:08:45;18.80;99.90
54824;DHT22;40724;53.196;5.980;2024-01-27T12:11:13;19.00;99.90
54824;DHT22;40724;53.196;5.980;2024-01-27T12:16:07;19.20;99.90
54824;DHT22;40724;53.196;5.980;2024-01-27T12:21:01;19.60;99.90
54824;DHT22;40724;53.196;5.980;2024-01-27T12:23:26;19.90;99.90
54824;DHT22;40724;53.196;5.980;2024-01-27T12:25:53;20.10;99.90
54824;DHT22;40724;53.196;5.980;2024-01-27T12:28:19;20.30;99.80
54824;DHT22;40724;53.196;5.980;2024-01-27T12:30:46;20.40;99.50
54824;DHT22;40724;53.196;5.980;2024-01-27T12:33:12;20.50;99.30
54824;DHT22;40724;53.196;5.980;2024-01-27T12:35:38;20.60;99.00
54824;DHT22;40724;53.196;5.980;2024-01-27T12:38:05;20.70;98.70
54824;DHT22;40724;53.196;5.980;2024-01-27T12:40:32;20.80;98.60
54824;DHT22;40724;53.196;5.980;2024-01-27T12:42:58;20.90;98.40
54824;DHT22;40724;53.196;5.980;2024-01-27T12:45:23;20.90;98.30
54824;DHT22;40724;53.196;5.980;2024-01-27T12:47:49;20.90;98.10
54824;DHT22;40724;53.196;5.980;2024-01-27T12:50:15;21.00;98.00
54824;DHT22;40724;53.196;5.980;2024-01-27T12:52:42;21.00;97.90
54824;DHT22;40724;53.196;5.980;2024-01-27T12:55:08;21.00;97.90
54824;DHT22;40724;53.196;5.980;2024-01-27T12:57:34;21.00;97.80
54824;DHT22;40724;53.196;5.980;2024-01-27T13:00:00;21.00;97.80
54824;DHT22;40724;53.196;5.980;2024-01-27T13:02:29;21.00;97.70
54824;DHT22;40724;53.196;5.980;2024-01-27T13:04:55;21.10;97.70
54824;DHT22;40724;53.196;5.980;2024-01-27T13:07:21;21.10;97.60
54824;DHT22;40724;53.196;5.980;2024-01-27T13:09:47;21.10;97.50
54824;DHT22;40724;53.196;5.980;2024-01-27T13:12:13;21.10;97.50
54824;DHT22;40724;53.196;5.980;2024-01-27T13:14:39;21.00;97.50
54824;DHT22;40724;53.196;5.980;2024-01-27T13:17:04;21.00;97.60
54824;DHT22;40724;53.196;5.980;2024-01-27T13:19:30;21.00;97.60
54824;DHT22;40724;53.196;5.980;2024-01-27T13:21:57;20.90;97.60
54824;DHT22;40724;53.196;5.980;2024-01-27T13:24:22;20.90;97.60
54824;DHT22;40724;53.196;5.980;2024-01-27T13:26:50;20.90;97.60
54824;DHT22;40724;53.196;5.980;2024-01-27T13:29:15;20.90;97.70
54824;DHT22;40724;53.196;5.980;2024-01-27T13:31:41;20.80;97.80
54824;DHT22;40724;53.196;5.980;2024-01-27T13:34:07;20.90;98.00
54824;DHT22;40724;53.196;5.980;2024-01-27T13:36:32;20.80;98.00
54824;DHT22;40724;53.196;5.980;2024-01-27T13:38:59;20.90;98.10
54824;DHT22;40724;53.196;5.980;2024-01-27T13:41:25;20.90;98.00
54824;DHT22;40724;53.196;5.980;2024-01-27T13:43:51;20.90;98.00
54824;DHT22;40724;53.196;5.980;2024-01-27T13:46:17;20.80;97.80
54824;DHT22;40724;53.196;5.980;2024-01-27T13:48:42;20.90;97.70
54824;DHT22;40724;53.196;5.980;2024-01-27T13:51:08;20.80;97.50
54824;DHT22;40724;53.196;5.980;2024-01-27T13:53:34;20.90;97.30
54824;DHT22;40724;53.196;5.980;2024-01-27T13:56:00;21.10;97.10
54824;DHT22;40724;53.196;5.980;2024-01-27T13:58:26;21.40;96.70
54824;DHT22;40724;53.196;5.980;2024-01-27T14:03:18;21.70;96.10
54824;DHT22;40724;53.196;5.980;2024-01-27T14:05:44;22.30;94.90
54824;DHT22;40724;53.196;5.980;2024-01-27T14:08:12;22.20;94.30
54824;DHT22;40724;53.196;5.980;2024-01-27T14:10:38;22.20;94.00
54824;DHT22;40724;53.196;5.980;2024-01-27T14:13:05;22.00;93.80
54824;DHT22;40724;53.196;5.980;2024-01-27T14:15:35;21.70;93.80
54824;DHT22;40724;53.196;5.980;2024-01-27T14:18:02;21.20;93.70
54824;DHT22;40724;53.196;5.980;2024-01-27T14:20:27;20.90;93.70
54824;DHT22;40724;53.196;5.980;2024-01-27T14:22:56;20.50;93.80
54824;DHT22;40724;53.196;5.980;2024-01-27T14:25:23;20.10;93.80
54824;DHT22;40724;53.196;5.980;2024-01-27T14:27:49;19.80;93.90
54824;DHT22;40724;53.196;5.980;2024-01-27T14:30:15;19.40;93.90
54824;DHT22;40724;53.196;5.980;2024-01-27T14:32:41;19.10;93.90
54824;DHT22;40724;53.196;5.980;2024-01-27T14:39:59;18.80;94.00
54824;DHT22;40724;53.196;5.980;2024-01-27T14:42:25;17.90;94.30
54824;DHT22;40724;53.196;5.980;2024-01-27T14:47:21;17.60;94.40
54824;DHT22;40724;53.196;5.980;2024-01-27T15:06:56;17.20;94.60
54824;DHT22;40724;53.196;5.980;2024-01-27T15:28:57;15.70;95.60
54824;DHT22;40724;53.196;5.980;2024-01-27T15:46:01;14.20;96.70
54824;DHT22;40724;53.196;5.980;2024-01-27T15:53:23;13.20;97.50
54824;DHT22;40724;53.196;5.980;2024-01-27T15:55:49;12.80;97.80
